createdAt,value
2017-12-13T00:01:54.656Z,7.37
2017-12-13T00:04:21.483Z,7.97
2017-12-13T00:06:48.371Z,8.53
2017-12-13T00:09:15.291Z,7.83
2017-12-13T00:11:42.372Z,8.00
2017-12-13T00:14:09.244Z,8.30
2017-12-13T00:16:36.123Z,8.23
2017-12-13T00:19:02.922Z,7.63
2017-12-13T00:21:29.826Z,8.23
2017-12-13T00:23:56.672Z,8.20
2017-12-13T00:26:23.482Z,7.80
2017-12-13T00:28:50.348Z,7.97
2017-12-13T00:31:17.434Z,8.27
2017-12-13T00:33:44.216Z,7.67
2017-12-13T00:36:10.985Z,7.30
2017-12-13T00:38:37.798Z,8.10
2017-12-13T00:41:04.560Z,6.90
2017-12-13T00:43:31.378Z,7.30
2017-12-13T00:45:58.293Z,7.47
2017-12-13T00:48:25.234Z,7.30
2017-12-13T00:50:52.044Z,6.03
2017-12-13T00:53:18.892Z,7.17
2017-12-13T00:55:45.701Z,6.60
2017-12-13T00:58:12.487Z,5.13
2017-12-13T01:00:39.256Z,5.60
2017-12-13T01:03:06.111Z,6.37
2017-12-13T01:05:33.168Z,6.00
2017-12-13T01:08:00.088Z,5.90
2017-12-13T01:10:27.002Z,5.80
2017-12-13T01:12:53.771Z,6.00
2017-12-13T01:15:20.563Z,6.77
2017-12-13T01:17:47.385Z,6.17
2017-12-13T01:20:14.176Z,5.30
2017-12-13T01:22:41.044Z,5.80
2017-12-13T01:25:07.877Z,5.77
2017-12-13T01:27:34.697Z,5.70
2017-12-13T01:30:02.299Z,6.10
2017-12-13T01:32:29.219Z,5.50
2017-12-13T01:34:56.127Z,5.67
2017-12-13T01:37:23.811Z,5.77
2017-12-13T01:39:50.638Z,5.97
2017-12-13T01:42:17.506Z,5.20
2017-12-13T01:44:44.307Z,5.40
2017-12-13T01:47:11.086Z,5.03
2017-12-13T01:49:38.254Z,5.37
2017-12-13T01:52:05.220Z,5.60
2017-12-13T01:54:31.960Z,5.80
2017-12-13T01:56:58.777Z,5.33
2017-12-13T01:59:25.696Z,5.20
2017-12-13T02:01:52.480Z,5.20
2017-12-13T02:04:19.308Z,5.20
2017-12-13T02:06:46.154Z,5.10
2017-12-13T02:09:12.892Z,5.23
2017-12-13T02:11:39.776Z,5.00
2017-12-13T02:14:06.660Z,5.27
2017-12-13T02:16:33.408Z,4.70
2017-12-13T02:19:00.309Z,4.77
2017-12-13T02:21:27.110Z,4.50
2017-12-13T02:23:53.890Z,4.83
2017-12-13T02:26:21.544Z,4.23
2017-12-13T02:28:48.302Z,4.63
2017-12-13T02:31:15.123Z,4.80
2017-12-13T02:33:41.897Z,4.70
2017-12-13T02:36:08.673Z,3.80
2017-12-13T02:38:35.483Z,3.87
2017-12-13T02:41:02.264Z,4.30
2017-12-13T02:43:29.102Z,5.13
2017-12-13T02:45:55.922Z,4.27
2017-12-13T02:48:22.710Z,3.77
2017-12-13T02:50:49.454Z,3.70
2017-12-13T02:53:16.260Z,4.57
2017-12-13T02:55:43.021Z,4.60
2017-12-13T02:58:09.811Z,4.00
2017-12-13T03:00:36.613Z,4.10
2017-12-13T03:03:03.366Z,4.00
2017-12-13T03:05:30.250Z,4.13
2017-12-13T03:07:57.031Z,3.30
2017-12-13T03:10:23.808Z,3.30
2017-12-13T03:12:50.591Z,3.80
2017-12-13T03:15:17.415Z,3.67
2017-12-13T03:17:44.179Z,3.97
2017-12-13T03:20:10.956Z,3.70
2017-12-13T03:22:37.705Z,3.80
2017-12-13T03:25:04.507Z,3.40
2017-12-13T03:27:31.349Z,4.33
2017-12-13T03:29:58.164Z,4.00
2017-12-13T03:32:24.979Z,3.30
2017-12-13T03:34:51.748Z,3.33
2017-12-13T03:37:18.541Z,3.30
2017-12-13T03:39:45.277Z,3.37
2017-12-13T03:42:12.082Z,3.10
2017-12-13T03:44:38.821Z,3.03
2017-12-13T03:47:05.606Z,3.37
2017-12-13T03:49:32.365Z,3.50
2017-12-13T03:51:59.201Z,2.73
2017-12-13T03:54:26.002Z,2.63
2017-12-13T03:56:52.796Z,2.80
2017-12-13T03:59:19.576Z,3.20
2017-12-13T04:01:46.336Z,2.90
2017-12-13T04:04:13.112Z,2.60
2017-12-13T04:06:39.870Z,2.80
2017-12-13T04:09:06.647Z,2.60
2017-12-13T04:11:33.399Z,2.57
2017-12-13T04:14:00.223Z,3.00
2017-12-13T04:16:26.993Z,2.60
2017-12-13T04:18:54.755Z,3.33
2017-12-13T04:21:21.559Z,1.90
2017-12-13T04:23:48.335Z,2.53
2017-12-13T04:26:15.145Z,2.50
2017-12-13T04:28:41.950Z,2.50
2017-12-13T04:31:08.751Z,2.20
2017-12-13T04:33:35.563Z,2.23
2017-12-13T04:36:02.350Z,1.90
2017-12-13T04:38:29.853Z,2.00
2017-12-13T04:45:59.118Z,2.40
2017-12-13T04:48:25.885Z,1.80
2017-12-13T04:50:52.645Z,1.83
2017-12-13T04:53:19.494Z,2.43
2017-12-13T04:55:46.910Z,2.50
2017-12-13T04:58:13.722Z,2.10
2017-12-13T05:00:40.491Z,2.47
2017-12-13T05:03:07.270Z,2.50
2017-12-13T05:05:34.034Z,2.20
2017-12-13T05:08:00.781Z,2.47
2017-12-13T05:10:27.652Z,1.93
2017-12-13T05:12:54.433Z,2.77
2017-12-13T05:15:22.525Z,3.13
2017-12-13T05:17:52.186Z,2.87
2017-12-13T05:20:19.150Z,2.50
2017-12-13T05:22:45.913Z,3.27
2017-12-13T05:25:12.646Z,2.50
2017-12-13T05:27:39.713Z,2.40
2017-12-13T05:30:06.510Z,3.07
2017-12-13T05:32:33.288Z,2.80
2017-12-13T05:35:00.143Z,2.97
2017-12-13T05:37:26.888Z,2.70
2017-12-13T05:39:53.675Z,3.00
2017-12-13T05:42:20.764Z,3.20
2017-12-13T05:44:47.529Z,3.57
2017-12-13T05:47:20.192Z,3.40
2017-12-13T05:49:47.025Z,3.47
2017-12-13T05:52:13.788Z,3.33
2017-12-13T05:54:41.298Z,3.40
2017-12-13T05:57:08.084Z,3.10
2017-12-13T05:59:34.904Z,3.40
2017-12-13T06:02:01.690Z,3.20
2017-12-13T06:04:28.873Z,3.00
2017-12-13T06:06:55.646Z,3.47
2017-12-13T06:09:22.469Z,3.17
2017-12-13T06:11:51.623Z,3.77
2017-12-13T06:14:18.367Z,3.67
2017-12-13T06:16:45.150Z,3.70
2017-12-13T06:19:12.003Z,3.10
2017-12-13T06:21:38.742Z,3.53
2017-12-13T06:24:05.530Z,3.30
2017-12-13T06:26:32.424Z,3.70
2017-12-13T06:28:59.355Z,3.80
2017-12-13T06:31:26.184Z,3.30
2017-12-13T06:33:53.320Z,3.83
2017-12-13T06:36:20.115Z,3.40
2017-12-13T06:38:47.209Z,3.20
2017-12-13T06:41:14.049Z,3.60
2017-12-13T06:43:42.652Z,3.40
2017-12-13T06:46:09.435Z,3.47
2017-12-13T06:48:36.189Z,4.30
2017-12-13T06:51:03.000Z,3.63
2017-12-13T06:53:31.490Z,3.37
2017-12-13T06:55:58.286Z,3.73
2017-12-13T06:58:25.098Z,3.77
2017-12-13T07:00:51.884Z,3.70
2017-12-13T07:03:20.363Z,3.80
2017-12-13T07:05:47.202Z,3.50
2017-12-13T07:08:13.973Z,3.20
2017-12-13T07:10:42.225Z,3.20
2017-12-13T07:13:09.080Z,3.87
2017-12-13T07:15:35.868Z,3.60
2017-12-13T07:18:02.684Z,3.73
2017-12-13T07:20:29.439Z,3.43
2017-12-13T07:22:56.378Z,3.60
2017-12-13T07:25:23.271Z,3.03
2017-12-13T07:27:50.110Z,3.30
2017-12-13T07:30:16.986Z,3.60
2017-12-13T07:32:43.778Z,3.77
2017-12-13T07:35:10.576Z,3.40
2017-12-13T07:37:37.910Z,3.90
2017-12-13T07:40:04.666Z,3.43
2017-12-13T07:42:31.545Z,3.97
2017-12-13T07:44:58.350Z,3.70
2017-12-13T07:47:25.160Z,3.60
2017-12-13T07:49:52.009Z,3.77
2017-12-13T07:52:18.799Z,3.10
2017-12-13T07:54:45.610Z,3.30
2017-12-13T07:57:12.351Z,3.93
2017-12-13T07:59:39.153Z,3.87
2017-12-13T08:02:07.804Z,5.40
2017-12-13T08:04:34.593Z,5.23
2017-12-13T08:07:01.381Z,4.37
2017-12-13T08:09:28.225Z,3.80
2017-12-13T08:11:55.009Z,3.27
2017-12-13T08:14:21.767Z,4.33
2017-12-13T08:16:48.551Z,4.20
2017-12-13T08:19:16.130Z,4.00
2017-12-13T08:21:42.910Z,3.50
2017-12-13T08:24:09.671Z,3.40
2017-12-13T08:26:36.514Z,3.43
2017-12-13T08:29:03.268Z,4.20
2017-12-13T08:31:30.053Z,3.10
2017-12-13T08:33:56.818Z,3.13
2017-12-13T08:36:23.609Z,3.07
2017-12-13T08:38:50.439Z,2.87
2017-12-13T08:41:17.295Z,2.90
2017-12-13T08:43:44.186Z,2.80
2017-12-13T08:46:11.007Z,2.77
2017-12-13T08:48:39.566Z,3.27
2017-12-13T08:51:06.332Z,3.40
2017-12-13T08:53:33.103Z,3.10
2017-12-13T08:55:59.904Z,3.00
2017-12-13T08:58:26.735Z,2.53
2017-12-13T09:00:53.485Z,2.50
2017-12-13T09:03:20.283Z,2.60
2017-12-13T09:05:47.062Z,2.73
2017-12-13T09:08:14.723Z,2.50
2017-12-13T09:10:41.520Z,3.43
2017-12-13T09:13:08.286Z,3.30
2017-12-13T09:15:35.072Z,2.80
2017-12-13T09:18:01.841Z,3.00
2017-12-13T09:20:28.607Z,2.23
2017-12-13T09:22:55.412Z,2.40
2017-12-13T09:25:22.189Z,1.93
2017-12-13T09:27:55.549Z,2.00
2017-12-13T09:30:22.318Z,2.37
2017-12-13T09:32:49.102Z,1.87
2017-12-13T09:35:15.859Z,2.33
2017-12-13T09:37:42.642Z,1.90
2017-12-13T09:40:09.445Z,1.77
2017-12-13T09:42:36.238Z,2.30
2017-12-13T09:45:03.003Z,2.40
2017-12-13T09:47:29.799Z,2.00
2017-12-13T09:49:56.552Z,1.87
2017-12-13T09:52:23.368Z,1.60
2017-12-13T09:54:50.121Z,2.30
2017-12-13T09:57:17.692Z,1.77
2017-12-13T09:59:44.494Z,2.33
2017-12-13T10:02:11.314Z,1.90
2017-12-13T10:04:38.101Z,1.50
2017-12-13T10:07:04.880Z,1.77
2017-12-13T10:09:32.537Z,1.73
2017-12-13T10:11:59.387Z,1.67
2017-12-13T10:14:28.082Z,1.50
2017-12-13T10:16:54.892Z,1.63
2017-12-13T10:19:21.658Z,1.63
2017-12-13T10:21:49.856Z,1.20
2017-12-13T10:24:16.594Z,1.43
2017-12-13T10:26:43.355Z,1.40
2017-12-13T10:29:14.753Z,1.23
2017-12-13T10:31:41.740Z,1.50
2017-12-13T10:34:09.394Z,1.20
2017-12-13T10:36:36.146Z,1.40
2017-12-13T10:39:02.969Z,1.50
2017-12-13T10:41:30.516Z,1.43
2017-12-13T10:43:57.382Z,1.30
2017-12-13T10:46:24.161Z,1.20
2017-12-13T10:48:50.925Z,1.10
2017-12-13T10:51:23.590Z,1.30
2017-12-13T10:53:50.404Z,1.60
2017-12-13T10:56:17.169Z,1.20
2017-12-13T10:58:44.082Z,1.00
2017-12-13T11:01:10.815Z,1.03
2017-12-13T11:03:38.280Z,1.10
2017-12-13T11:06:05.130Z,1.00
2017-12-13T11:08:31.941Z,1.27
2017-12-13T11:10:58.725Z,1.23
2017-12-13T11:13:25.489Z,1.00
2017-12-13T11:15:52.239Z,1.63
2017-12-13T11:18:19.773Z,1.03
2017-12-13T11:20:46.533Z,1.30
2017-12-13T11:23:14.086Z,1.33
2017-12-13T11:25:40.838Z,1.20
2017-12-13T11:28:07.636Z,1.00
2017-12-13T11:30:34.402Z,1.00
2017-12-13T11:33:01.225Z,1.10
2017-12-13T11:35:28.066Z,1.30
2017-12-13T11:37:56.428Z,1.17
2017-12-13T11:40:23.211Z,1.00
2017-12-13T11:42:50.299Z,1.20
2017-12-13T11:45:17.060Z,0.97
2017-12-13T11:47:46.461Z,1.00
2017-12-13T11:50:13.209Z,1.07
2017-12-13T11:52:39.978Z,1.40
2017-12-13T11:55:06.800Z,1.20
2017-12-13T11:57:33.547Z,1.20
2017-12-13T12:00:00.369Z,1.20
2017-12-13T12:02:27.118Z,1.00
2017-12-13T12:04:53.926Z,0.97
2017-12-13T12:07:20.711Z,1.17
2017-12-13T12:09:47.559Z,1.03
2017-12-13T12:12:14.366Z,0.73
2017-12-13T12:14:41.118Z,0.90
2017-12-13T12:17:07.893Z,0.80
2017-12-13T12:19:34.678Z,0.83
2017-12-13T12:22:01.520Z,1.00
2017-12-13T12:24:30.054Z,1.23
2017-12-13T12:26:56.845Z,1.10
2017-12-13T12:29:23.597Z,0.83
2017-12-13T12:31:50.363Z,0.90
2017-12-13T12:34:17.146Z,0.90
2017-12-13T12:36:46.870Z,1.10
2017-12-13T12:39:13.645Z,1.00
2017-12-13T12:41:40.479Z,1.23
2017-12-13T12:44:11.817Z,0.70
2017-12-13T12:46:38.574Z,0.90
2017-12-13T12:49:05.383Z,1.67
2017-12-13T12:51:32.172Z,1.07
2017-12-13T12:54:04.518Z,0.87
2017-12-13T12:56:31.329Z,0.90
2017-12-13T12:58:58.109Z,1.10
2017-12-13T13:01:24.852Z,1.17
2017-12-13T13:03:51.833Z,0.97
2017-12-13T13:06:18.568Z,1.00
2017-12-13T13:08:45.433Z,0.70
2017-12-13T13:11:13.074Z,0.90
2017-12-13T13:13:39.834Z,0.80
2017-12-13T13:16:06.604Z,0.90
2017-12-13T13:18:33.340Z,0.60
2017-12-13T13:21:00.388Z,1.07
2017-12-13T13:23:32.640Z,0.80
2017-12-13T13:25:59.436Z,0.80
2017-12-13T13:28:26.182Z,0.80
2017-12-13T13:30:52.958Z,1.07
2017-12-13T13:33:19.722Z,1.07
2017-12-13T13:35:47.482Z,1.00
2017-12-13T13:38:14.283Z,1.00
2017-12-13T13:40:41.078Z,0.87
2017-12-13T13:43:09.778Z,1.27
2017-12-13T13:45:39.263Z,0.70
2017-12-13T13:48:06.064Z,0.90
2017-12-13T13:50:36.518Z,1.00
2017-12-13T13:53:04.134Z,0.80
2017-12-13T13:55:30.908Z,0.73
2017-12-13T13:57:57.662Z,0.70
2017-12-13T14:00:24.503Z,0.90
2017-12-13T14:02:53.891Z,0.67
2017-12-13T14:05:21.561Z,1.07
2017-12-13T14:07:51.141Z,0.90
2017-12-13T14:10:17.887Z,1.30
2017-12-13T14:12:45.531Z,1.10
2017-12-13T14:15:12.324Z,1.17
2017-12-13T14:17:39.048Z,1.40
2017-12-13T14:20:07.554Z,1.30
2017-12-13T14:22:34.377Z,1.03
2017-12-13T14:25:01.139Z,1.00
2017-12-13T14:27:27.996Z,1.17
2017-12-13T14:29:54.759Z,1.20
2017-12-13T14:32:21.560Z,1.07
2017-12-13T14:34:48.481Z,1.20
2017-12-13T14:37:19.948Z,1.20
2017-12-13T14:39:46.710Z,1.47
2017-12-13T14:42:14.215Z,1.10
2017-12-13T14:44:40.975Z,1.23
2017-12-13T14:47:07.784Z,1.20
2017-12-13T14:49:34.591Z,1.03
2017-12-13T14:52:01.646Z,1.23
2017-12-13T14:54:28.439Z,1.20
2017-12-13T14:56:55.265Z,1.30
2017-12-13T14:59:22.103Z,1.20
2017-12-13T15:01:48.914Z,1.83
2017-12-13T15:04:18.019Z,1.20
2017-12-13T15:06:44.886Z,2.20
2017-12-13T15:09:11.643Z,1.50
2017-12-13T15:11:38.431Z,1.83
2017-12-13T15:14:05.449Z,1.20
2017-12-13T15:16:32.275Z,1.73
2017-12-13T15:18:59.067Z,1.73
2017-12-13T15:21:25.857Z,1.50
2017-12-13T15:23:52.637Z,1.33
2017-12-13T15:26:23.095Z,1.10
2017-12-13T15:28:50.112Z,1.50
2017-12-13T15:31:16.904Z,1.63
2017-12-13T15:33:43.710Z,1.20
2017-12-13T15:36:11.360Z,1.70
2017-12-13T15:38:38.103Z,1.93
2017-12-13T15:41:04.869Z,1.70
2017-12-13T15:43:32.529Z,1.20
2017-12-13T15:45:59.319Z,1.30
2017-12-13T15:48:26.096Z,1.47
2017-12-13T15:50:52.903Z,1.30
2017-12-13T15:53:19.661Z,1.40
2017-12-13T15:55:46.431Z,1.30
2017-12-13T15:58:13.219Z,1.37
2017-12-13T16:00:40.031Z,1.50
2017-12-13T16:03:09.715Z,1.10
2017-12-13T16:05:36.516Z,1.43
2017-12-13T16:08:03.316Z,1.40
2017-12-13T16:10:30.158Z,1.60
2017-12-13T16:12:56.925Z,1.53
2017-12-13T16:15:23.684Z,1.33
2017-12-13T16:17:52.182Z,1.20
2017-12-13T16:20:19.891Z,1.67
2017-12-13T16:22:46.800Z,1.70
2017-12-13T16:25:13.586Z,1.80
2017-12-13T16:27:40.366Z,1.60
2017-12-13T16:30:07.116Z,1.60
2017-12-13T16:32:35.210Z,1.20
2017-12-13T16:35:02.093Z,1.40
2017-12-13T16:37:28.901Z,1.40
2017-12-13T16:39:56.477Z,1.03
2017-12-13T16:42:26.097Z,1.97
2017-12-13T16:44:56.138Z,1.50
2017-12-13T16:47:22.961Z,1.40
2017-12-13T16:49:50.712Z,1.23
2017-12-13T16:52:17.461Z,1.40
2017-12-13T16:54:45.248Z,1.83
2017-12-13T16:57:12.057Z,1.60
2017-12-13T16:59:38.926Z,2.00
2017-12-13T17:02:05.721Z,1.17
2017-12-13T17:04:32.478Z,1.53
2017-12-13T17:07:00.112Z,1.40
2017-12-13T17:09:29.727Z,1.47
2017-12-13T17:11:56.522Z,1.33
2017-12-13T17:16:54.449Z,1.50
2017-12-13T17:19:21.548Z,1.50
2017-12-13T17:21:48.622Z,1.37
2017-12-13T17:24:15.546Z,1.37
2017-12-13T17:26:42.564Z,1.40
2017-12-13T17:29:09.415Z,1.03
2017-12-13T17:31:36.545Z,1.43
2017-12-13T17:34:03.780Z,1.20
2017-12-13T17:36:31.295Z,0.97
2017-12-13T17:38:58.253Z,1.10
2017-12-13T17:41:25.256Z,1.10
2017-12-13T17:43:52.299Z,1.00
2017-12-13T17:46:19.318Z,1.17
2017-12-13T17:48:47.247Z,1.17
2017-12-13T17:51:14.362Z,1.33
2017-12-13T17:53:42.268Z,1.20
2017-12-13T17:56:09.138Z,1.17
2017-12-13T17:58:36.010Z,1.13
2017-12-13T18:01:02.828Z,1.20
2017-12-13T18:03:29.667Z,0.90
2017-12-13T18:05:56.575Z,1.23
2017-12-13T18:08:23.560Z,1.30
2017-12-13T18:10:50.460Z,1.23
2017-12-13T18:13:18.427Z,1.10
2017-12-13T18:15:45.529Z,1.23
2017-12-13T18:18:12.326Z,1.40
2017-12-13T18:20:39.171Z,0.80
2017-12-13T18:23:14.377Z,1.27
2017-12-13T18:25:41.288Z,1.00
2017-12-13T18:28:11.891Z,1.03
2017-12-13T18:30:39.081Z,1.13
2017-12-13T18:33:05.946Z,1.00
2017-12-13T18:35:32.852Z,0.90
2017-12-13T18:37:59.726Z,1.23
2017-12-13T18:40:26.955Z,1.67
2017-12-13T18:42:54.235Z,1.80
2017-12-13T18:45:21.452Z,1.30
2017-12-13T18:47:48.668Z,1.00
2017-12-13T18:50:22.216Z,1.10
2017-12-13T18:52:49.079Z,1.10
2017-12-13T18:55:16.936Z,1.00
2017-12-13T18:57:43.866Z,1.10
2017-12-13T19:00:12.609Z,1.27
2017-12-13T19:02:39.477Z,1.10
2017-12-13T19:05:07.372Z,1.53
2017-12-13T19:07:34.246Z,1.20
2017-12-13T19:10:01.510Z,1.07
2017-12-13T19:12:28.584Z,1.10
2017-12-13T19:14:55.437Z,1.50
2017-12-13T19:17:22.275Z,1.20
2017-12-13T19:19:49.111Z,1.30
2017-12-13T19:22:15.957Z,1.30
2017-12-13T19:24:42.775Z,1.10
2017-12-13T19:27:09.670Z,1.10
2017-12-13T19:29:36.553Z,1.10
2017-12-13T19:32:03.406Z,1.10
2017-12-13T19:34:30.232Z,1.13
2017-12-13T19:36:57.099Z,1.50
2017-12-13T19:39:24.114Z,1.10
2017-12-13T19:41:50.950Z,1.00
2017-12-13T19:44:18.113Z,1.03
2017-12-13T19:46:45.462Z,1.10
2017-12-13T19:49:13.117Z,1.00
2017-12-13T19:51:40.209Z,1.00
2017-12-13T19:54:07.707Z,1.20
2017-12-13T19:56:38.929Z,1.10
2017-12-13T19:59:05.833Z,1.00
2017-12-13T20:01:38.419Z,0.93
2017-12-13T20:04:05.578Z,1.00
2017-12-13T20:06:32.735Z,1.17
2017-12-13T20:08:59.696Z,2.17
2017-12-13T20:11:26.476Z,1.63
2017-12-13T20:13:53.355Z,1.80
2017-12-13T20:16:20.214Z,2.10
2017-12-13T20:18:47.006Z,1.70
2017-12-13T20:21:13.846Z,1.63
2017-12-13T20:23:40.675Z,1.70
2017-12-13T20:26:07.567Z,1.30
2017-12-13T20:28:34.438Z,1.20
2017-12-13T20:31:01.338Z,1.40
2017-12-13T20:33:28.576Z,1.07
2017-12-13T20:35:57.625Z,1.43
2017-12-13T20:38:26.565Z,1.17
2017-12-13T20:40:53.419Z,1.33
2017-12-13T20:43:20.200Z,1.17
2017-12-13T20:45:47.025Z,1.10
2017-12-13T20:48:14.894Z,1.33
2017-12-13T20:50:41.791Z,1.30
2017-12-13T20:53:08.761Z,1.50
2017-12-13T20:55:35.684Z,1.50
2017-12-13T20:58:04.633Z,1.40
2017-12-13T21:00:32.418Z,1.40
2017-12-13T21:02:59.319Z,2.13
2017-12-13T21:05:27.356Z,1.20
2017-12-13T21:08:02.476Z,1.90
2017-12-13T21:10:29.438Z,1.30
2017-12-13T21:12:56.290Z,1.77
2017-12-13T21:15:23.137Z,1.20
2017-12-13T21:17:50.001Z,1.33
2017-12-13T21:20:17.043Z,1.40
2017-12-13T21:22:43.834Z,1.37
2017-12-13T21:25:10.636Z,1.10
2017-12-13T21:27:37.528Z,1.37
2017-12-13T21:30:05.294Z,1.30
2017-12-13T21:32:32.171Z,1.33
2017-12-13T21:34:58.957Z,1.37
2017-12-13T21:37:25.786Z,1.10
2017-12-13T21:39:52.554Z,1.30
2017-12-13T21:42:19.496Z,0.97
2017-12-13T21:44:46.386Z,0.90
2017-12-13T21:47:13.183Z,0.97
2017-12-13T21:49:40.032Z,1.00
2017-12-13T21:52:06.846Z,1.40
2017-12-13T21:54:34.855Z,1.13
2017-12-13T21:57:01.662Z,1.27
2017-12-13T21:59:28.461Z,1.00
2017-12-13T22:01:55.312Z,1.20
2017-12-13T22:04:22.167Z,0.87
2017-12-13T22:06:48.957Z,1.20
2017-12-13T22:09:16.015Z,1.27
2017-12-13T22:11:42.926Z,1.13
2017-12-13T22:14:10.088Z,1.30
2017-12-13T22:16:37.052Z,0.90
2017-12-13T22:19:03.936Z,1.00
2017-12-13T22:21:30.713Z,0.80
2017-12-13T22:23:57.637Z,0.80
2017-12-13T22:26:24.482Z,0.93
2017-12-13T22:28:51.281Z,1.00
2017-12-13T22:31:18.075Z,1.30
2017-12-13T22:33:44.884Z,0.60
2017-12-13T22:36:11.931Z,0.87
2017-12-13T22:38:38.763Z,1.00
2017-12-13T22:41:05.716Z,1.10
2017-12-13T22:43:32.684Z,0.97
2017-12-13T22:45:59.726Z,0.80
2017-12-13T22:48:27.271Z,1.00
2017-12-13T22:50:54.100Z,0.87
2017-12-13T22:53:21.891Z,0.60
2017-12-13T22:55:48.682Z,0.60
2017-12-13T22:58:16.271Z,0.70
2017-12-13T23:00:48.823Z,0.83
2017-12-13T23:03:15.630Z,0.80
2017-12-13T23:05:42.495Z,0.70
2017-12-13T23:08:09.302Z,0.80
2017-12-13T23:10:36.154Z,0.70
2017-12-13T23:13:03.023Z,0.70
2017-12-13T23:15:29.806Z,0.70
2017-12-13T23:17:56.582Z,0.70
2017-12-13T23:20:23.416Z,0.60
2017-12-13T23:22:50.260Z,0.60
2017-12-13T23:25:17.198Z,0.50
2017-12-13T23:27:44.081Z,0.70
2017-12-13T23:30:10.866Z,0.80
2017-12-13T23:32:37.626Z,0.60
2017-12-13T23:35:04.450Z,0.80
2017-12-13T23:37:31.207Z,0.70
2017-12-13T23:39:57.987Z,0.70
2017-12-13T23:42:24.843Z,0.67
2017-12-13T23:44:51.605Z,0.67
2017-12-13T23:47:18.463Z,0.80
2017-12-13T23:49:45.365Z,0.70
2017-12-13T23:52:12.134Z,0.77
2017-12-13T23:54:39.001Z,0.50
2017-12-13T23:57:05.808Z,0.80
2017-12-13T23:59:32.633Z,0.93
